Time;durP1;ratioP1;P1;durP2;ratioP2;P2;SDS_P1;SDS_P2;PMS_P1;PMS_P2;Temp;Humidity;BMP_temperature;BMP_pressure;BME280_temperature;BME280_humidity;BME280_pressure;Samples;Min_cycle;Max_cycle;Signal;HPM_P1;HPM_P2
2021/08/15 00:00:11;;;;;;;1999.90;999.90;;;17.70;99.90;;;;;;5036523;28;20457;-87
2021/08/15 00:02:38;;;;;;;1999.90;999.90;;;17.70;99.90;;;;;;5036121;28;20886;-88
2021/08/15 00:05:07;;;;;;;1999.90;999.90;;;17.70;99.90;;;;;;5036071;28;20462;-88
2021/08/15 00:07:35;;;;;;;1999.90;999.90;;;17.70;99.90;;;;;;5035866;28;20525;-88
2021/08/15 00:10:03;;;;;;;1999.90;999.90;;;17.60;99.90;;;;;;5035785;28;20503;-88
2021/08/15 00:12:30;;;;;;;1999.90;999.90;;;17.60;99.90;;;;;;5035206;28;20456;-88
2021/08/15 00:14:57;;;;;;;1999.90;999.90;;;17.60;99.90;;;;;;5034122;28;20471;-86
2021/08/15 00:17:24;;;;;;;1999.90;999.90;;;17.60;99.90;;;;;;5033373;28;20457;-87
2021/08/15 00:19:50;;;;;;;1999.90;999.90;;;17.60;99.90;;;;;;5014619;28;20552;-88
2021/08/15 00:22:20;;;;;;;1999.90;999.90;;;17.60;99.90;;;;;;5014486;28;20484;-87
2021/08/15 00:24:48;;;;;;;1999.90;999.90;;;17.50;99.90;;;;;;5014875;28;20459;-86
2021/08/15 00:27:15;;;;;;;1999.90;999.90;;;17.50;99.90;;;;;;5014349;28;20545;-86
2021/08/15 00:29:41;;;;;;;1999.90;999.90;;;17.50;99.90;;;;;;5014459;28;20475;-87
2021/08/15 00:32:08;;;;;;;1999.90;999.90;;;17.50;99.90;;;;;;5019931;28;20457;-87
2021/08/15 00:34:37;;;;;;;1999.90;999.90;;;17.50;99.90;;;;;;5033478;28;20446;-87
2021/08/15 00:37:04;;;;;;;1999.90;999.90;;;17.50;99.90;;;;;;5033669;28;20461;-88
2021/08/15 00:39:31;;;;;;;1999.90;999.90;;;17.40;99.90;;;;;;5033111;28;20465;-87
2021/08/15 00:42:00;;;;;;;1999.90;999.90;;;17.40;99.90;;;;;;5033791;28;21112;-87
2021/08/15 00:44:26;;;;;;;1999.90;999.90;;;17.40;99.90;;;;;;5033753;28;20456;-88
2021/08/15 00:46:54;;;;;;;1999.90;999.90;;;17.40;99.90;;;;;;5033348;28;20465;-88
2021/08/15 00:49:20;;;;;;;1999.90;999.90;;;17.40;99.90;;;;;;5034246;28;20460;-86
2021/08/15 00:51:47;;;;;;;1999.90;999.90;;;17.40;99.90;;;;;;5033688;28;20453;-88
2021/08/15 00:54:14;;;;;;;1999.90;999.90;;;17.40;99.90;;;;;;5034066;28;20466;-88
2021/08/15 00:56:41;;;;;;;1999.90;999.90;;;17.40;99.90;;;;;;5033853;28;20475;-88
2021/08/15 00:59:10;;;;;;;1999.90;999.90;;;17.40;99.90;;;;;;5034924;28;20458;-86
2021/08/15 01:01:37;;;;;;;1999.90;999.90;;;17.30;99.90;;;;;;5035350;28;20479;-87
2021/08/15 01:04:05;;;;;;;1999.90;999.90;;;17.30;99.90;;;;;;5035377;28;20453;-88
2021/08/15 01:06:33;;;;;;;1999.90;999.90;;;17.30;99.90;;;;;;5035002;28;20477;-88
2021/08/15 01:09:04;;;;;;;1999.90;999.90;;;17.30;99.90;;;;;;5035188;28;20447;-87
2021/08/15 01:11:32;;;;;;;1999.90;999.90;;;17.30;99.90;;;;;;5036072;28;20548;-87
2021/08/15 01:14:01;;;;;;;1999.90;999.90;;;17.30;99.90;;;;;;5035939;28;20928;-87
2021/08/15 01:16:29;;;;;;;1999.90;999.90;;;17.30;99.90;;;;;;5035692;28;20488;-87
2021/08/15 01:18:56;;;;;;;1999.90;999.90;;;17.30;99.90;;;;;;5036523;28;20453;-87
2021/08/15 01:21:23;;;;;;;1999.90;999.90;;;17.30;99.90;;;;;;5035724;28;20916;-88
2021/08/15 01:23:50;;;;;;;1999.90;999.90;;;17.30;99.90;;;;;;5034694;28;20454;-88
2021/08/15 01:26:19;;;;;;;1999.90;999.90;;;17.30;99.90;;;;;;5050725;28;20512;-90
2021/08/15 01:28:47;;;;;;;1999.90;999.90;;;17.30;99.90;;;;;;5034433;28;20436;-87
2021/08/15 01:31:15;;;;;;;1999.90;999.90;;;17.30;99.90;;;;;;5034132;28;20452;-86
2021/08/15 01:33:42;;;;;;;1999.90;999.90;;;17.30;99.90;;;;;;5033821;28;20459;-87
2021/08/15 01:36:14;;;;;;;1999.90;999.90;;;17.30;99.90;;;;;;5032844;28;20490;-87
2021/08/15 01:38:42;;;;;;;1999.90;999.90;;;17.30;99.90;;;;;;5032960;28;20546;-86
2021/08/15 01:41:10;;;;;;;1999.90;999.90;;;17.30;99.90;;;;;;5033324;28;20544;-86
2021/08/15 01:43:49;;;;;;;1999.90;999.90;;;17.30;99.90;;;;;;5032806;28;21000;-87
2021/08/15 01:46:16;;;;;;;1999.90;999.90;;;17.20;99.90;;;;;;5033125;28;20473;-87
2021/08/15 01:48:43;;;;;;;1999.90;999.90;;;17.20;99.90;;;;;;5033936;28;20453;-87
2021/08/15 01:51:10;;;;;;;1999.90;999.90;;;17.20;99.90;;;;;;5037966;28;20454;-88
2021/08/15 01:53:37;;;;;;;1999.90;999.90;;;17.20;99.90;;;;;;5038972;28;20482;-88
2021/08/15 01:56:04;;;;;;;1999.90;999.90;;;17.20;99.90;;;;;;5050865;28;20528;-88
2021/08/15 01:58:31;;;;;;;1999.90;999.90;;;17.20;99.90;;;;;;5054382;28;20472;-86
2021/08/15 02:01:01;;;;;;;1999.90;999.90;;;17.20;99.90;;;;;;5050799;28;20461;-86
2021/08/15 02:03:28;;;;;;;1999.90;999.90;;;17.20;99.90;;;;;;5047343;28;20884;-87
2021/08/15 02:05:55;;;;;;;1999.90;999.90;;;17.10;99.90;;;;;;5037394;28;20511;-86
2021/08/15 02:08:23;;;;;;;1999.90;999.90;;;17.10;99.90;;;;;;5036956;28;20460;-88
2021/08/15 02:10:50;;;;;;;1999.90;999.90;;;17.10;99.90;;;;;;5036227;28;20471;-87
2021/08/15 02:13:17;;;;;;;1999.90;999.90;;;17.00;99.90;;;;;;5035324;28;20494;-86
2021/08/15 02:15:44;;;;;;;1999.90;999.90;;;17.00;99.90;;;;;;5035655;28;20559;-86
2021/08/15 02:18:12;;;;;;;1999.90;999.90;;;17.00;99.90;;;;;;5035914;28;20963;-88
2021/08/15 02:20:40;;;;;;;1999.90;999.90;;;17.00;99.90;;;;;;5039176;28;20978;-88
2021/08/15 02:23:06;;;;;;;1999.90;999.90;;;17.00;99.90;;;;;;5038071;28;20476;-88
2021/08/15 02:25:33;;;;;;;1999.90;999.90;;;17.00;99.90;;;;;;5038784;28;20992;-86
2021/08/15 02:28:00;;;;;;;1999.90;999.90;;;17.00;99.90;;;;;;5033920;28;20473;-87
2021/08/15 02:30:27;;;;;;;1999.90;999.90;;;16.90;99.90;;;;;;5020115;28;20454;-87
2021/08/15 02:32:54;;;;;;;1999.90;999.90;;;16.90;99.90;;;;;;5018524;28;20452;-88
2021/08/15 02:35:23;;;;;;;1999.90;999.90;;;16.90;99.90;;;;;;5016050;28;20482;-87
2021/08/15 02:37:51;;;;;;;1999.90;999.90;;;16.90;99.90;;;;;;5016080;28;20481;-88
2021/08/15 02:40:20;;;;;;;1999.90;999.90;;;16.90;99.90;;;;;;5016419;28;20462;-87
2021/08/15 02:42:49;;;;;;;1999.90;999.90;;;16.90;99.90;;;;;;5016674;28;21051;-87
2021/08/15 02:45:17;;;;;;;1999.90;999.90;;;16.90;99.90;;;;;;5016239;28;20493;-87
2021/08/15 02:47:45;;;;;;;1999.90;999.90;;;16.90;99.90;;;;;;5016105;28;20450;-88
2021/08/15 02:50:13;;;;;;;1999.90;999.90;;;16.90;99.90;;;;;;5015959;28;20464;-88
2021/08/15 02:52:42;;;;;;;1999.90;999.90;;;16.90;99.90;;;;;;5016329;28;20450;-88
2021/08/15 02:55:10;;;;;;;1999.90;999.90;;;16.90;99.90;;;;;;5015598;28;20460;-87
2021/08/15 02:57:37;;;;;;;1999.90;999.90;;;16.90;99.90;;;;;;5015745;28;20811;-86
2021/08/15 03:00:06;;;;;;;1999.90;999.90;;;16.90;99.90;;;;;;5015556;28;20552;-88
2021/08/15 03:02:33;;;;;;;1999.90;999.90;;;16.80;99.90;;;;;;5015634;28;20492;-88
2021/08/15 03:05:00;;;;;;;1999.90;999.90;;;16.80;99.90;;;;;;5015564;28;20479;-87
2021/08/15 03:07:27;;;;;;;1999.90;999.90;;;16.80;99.90;;;;;;5015570;28;20442;-87
2021/08/15 03:09:55;;;;;;;1999.90;999.90;;;16.80;99.90;;;;;;5015314;28;20457;-87
2021/08/15 03:12:22;;;;;;;1999.90;999.90;;;16.80;99.90;;;;;;5015395;28;20461;-87
2021/08/15 03:14:49;;;;;;;1999.90;999.90;;;16.80;99.90;;;;;;5016001;28;20813;-86
2021/08/15 03:17:16;;;;;;;1999.90;999.90;;;16.80;99.90;;;;;;5015966;28;20458;-86
2021/08/15 03:19:43;;;;;;;1999.90;999.90;;;16.70;99.90;;;;;;5015805;28;20465;-85
2021/08/15 03:22:10;;;;;;;1999.90;999.90;;;16.70;99.90;;;;;;5015488;28;21016;-87
2021/08/15 03:24:37;;;;;;;1999.90;999.90;;;16.70;99.90;;;;;;5015403;28;20540;-87
2021/08/15 03:27:05;;;;;;;1999.90;999.90;;;16.70;99.90;;;;;;5015120;28;20464;-87
2021/08/15 03:29:32;;;;;;;1999.90;999.90;;;16.70;99.90;;;;;;5034266;28;20957;-87
2021/08/15 03:31:59;;;;;;;1999.90;999.90;;;16.70;99.90;;;;;;5034863;28;20839;-88
2021/08/15 03:34:26;;;;;;;1999.90;999.90;;;16.70;99.90;;;;;;5035291;28;20963;-87
2021/08/15 03:36:53;;;;;;;1999.90;999.90;;;16.60;99.90;;;;;;5091138;22;20593;-86
2021/08/15 03:39:21;;;;;;;1999.90;999.90;;;16.60;99.90;;;;;;5095378;28;20956;-86
2021/08/15 03:41:48;;;;;;;1999.90;999.90;;;16.60;99.90;;;;;;5093631;28;20926;-87
2021/08/15 03:44:16;;;;;;;1999.90;999.90;;;16.60;99.90;;;;;;5094367;28;20482;-86
2021/08/15 03:46:44;;;;;;;1999.90;999.90;;;16.60;99.90;;;;;;5094094;28;20470;-86
2021/08/15 03:49:12;;;;;;;1999.90;999.90;;;16.50;99.90;;;;;;5094533;28;20453;-86
2021/08/15 03:51:38;;;;;;;1999.90;999.90;;;16.50;99.90;;;;;;5094226;28;20527;-87
2021/08/15 03:54:05;;;;;;;1999.90;999.90;;;16.50;99.90;;;;;;5094081;28;20875;-86
2021/08/15 03:56:32;;;;;;;1999.90;999.90;;;16.50;99.90;;;;;;5093950;28;20557;-89
2021/08/15 03:58:59;;;;;;;1999.90;999.90;;;16.50;99.90;;;;;;5083658;28;20459;-89
2021/08/15 04:01:28;;;;;;;1999.90;999.90;;;16.50;99.90;;;;;;5074746;28;20832;-87
2021/08/15 04:03:54;;;;;;;1999.90;999.90;;;16.40;99.90;;;;;;5075538;28;20487;-89
2021/08/15 04:06:22;;;;;;;1999.90;999.90;;;16.40;99.90;;;;;;5074802;28;20482;-86
2021/08/15 04:08:50;;;;;;;1999.90;999.90;;;16.40;99.90;;;;;;5083114;28;21571;-86
2021/08/15 04:11:17;;;;;;;1999.90;999.90;;;16.40;99.90;;;;;;5075641;28;20442;-87
2021/08/15 04:13:44;;;;;;;1999.90;999.90;;;16.40;99.90;;;;;;5073923;28;21078;-87
2021/08/15 04:16:11;;;;;;;1999.90;999.90;;;16.40;99.90;;;;;;5091090;28;20471;-87
2021/08/15 04:18:39;;;;;;;1999.90;999.90;;;16.40;99.90;;;;;;5093589;28;20458;-87
2021/08/15 04:21:06;;;;;;;1999.90;999.90;;;16.40;99.90;;;;;;5093787;28;20454;-87
2021/08/15 04:23:33;;;;;;;1999.90;999.90;;;16.40;99.90;;;;;;5093895;28;20492;-87
2021/08/15 04:26:00;;;;;;;1999.90;999.90;;;16.40;99.90;;;;;;5093580;28;20485;-87
2021/08/15 04:28:27;;;;;;;1999.90;999.90;;;16.40;99.90;;;;;;5093662;28;20456;-87
2021/08/15 04:30:54;;;;;;;1999.90;999.90;;;16.40;99.90;;;;;;5092580;28;20450;-88
2021/08/15 04:33:24;;;;;;;1999.90;999.90;;;16.30;99.90;;;;;;5073046;28;20446;-87
2021/08/15 04:35:53;;;;;;;1999.90;999.90;;;16.30;99.90;;;;;;5074784;28;20478;-86
2021/08/15 04:38:20;;;;;;;1999.90;999.90;;;16.40;99.90;;;;;;5077614;28;20447;-85
2021/08/15 04:40:48;;;;;;;1999.90;999.90;;;16.30;99.90;;;;;;5077106;28;20513;-85
2021/08/15 04:43:14;;;;;;;1999.90;999.90;;;16.40;99.90;;;;;;5078336;28;20494;-85
2021/08/15 04:45:42;;;;;;;1999.90;999.90;;;16.40;99.90;;;;;;5078477;28;20579;-85
2021/08/15 04:48:09;;;;;;;1999.90;999.90;;;16.40;99.90;;;;;;5081270;28;20460;-83
2021/08/15 04:50:35;;;;;;;1999.90;999.90;;;16.50;99.90;;;;;;5097569;28;20484;-86
2021/08/15 04:53:03;;;;;;;1999.90;999.90;;;16.40;99.90;;;;;;5099114;28;20453;-87
2021/08/15 04:55:31;;;;;;;1999.90;999.90;;;16.50;99.90;;;;;;5098011;28;20471;-85
2021/08/15 04:57:58;;;;;;;1999.90;999.90;;;16.50;99.90;;;;;;5097798;28;20519;-85
2021/08/15 05:00:25;;;;;;;1999.90;999.90;;;16.50;99.90;;;;;;5098116;28;20499;-86
2021/08/15 05:02:52;;;;;;;1999.90;999.90;;;16.60;99.90;;;;;;5097175;28;20482;-86
2021/08/15 05:05:19;;;;;;;1999.90;999.90;;;16.60;99.90;;;;;;5095066;28;20539;-85
2021/08/15 05:07:46;;;;;;;1999.90;999.90;;;16.60;99.90;;;;;;5097489;28;20449;-85
2021/08/15 05:10:14;;;;;;;1999.90;999.90;;;16.70;99.90;;;;;;5096228;28;20445;-86
2021/08/15 05:12:41;;;;;;;1999.90;999.90;;;16.70;99.90;;;;;;5096313;28;20949;-86
2021/08/15 05:15:09;;;;;;;1999.90;999.90;;;16.70;99.90;;;;;;5096578;28;20451;-85
2021/08/15 05:17:36;;;;;;;1999.90;999.90;;;16.80;99.90;;;;;;5096746;28;21000;-86
2021/08/15 05:20:04;;;;;;;1999.90;999.90;;;16.80;99.90;;;;;;5096132;28;20473;-86
2021/08/15 05:22:31;;;;;;;1999.90;999.90;;;16.90;99.90;;;;;;5084908;28;21047;-85
2021/08/15 05:24:57;;;;;;;1999.90;999.90;;;17.00;99.90;;;;;;5076345;28;20486;-86
2021/08/15 05:27:26;;;;;;;1999.90;999.90;;;17.00;99.90;;;;;;5075758;28;20461;-86
2021/08/15 05:29:52;;;;;;;1999.90;999.90;;;17.10;99.90;;;;;;5077430;28;20444;-86
2021/08/15 05:32:19;;;;;;;1999.90;999.90;;;17.20;99.90;;;;;;5077901;28;20453;-85
2021/08/15 05:34:46;;;;;;;1999.90;999.90;;;17.30;99.90;;;;;;5084560;28;20445;-86
2021/08/15 05:37:13;;;;;;;1999.90;999.90;;;17.40;99.90;;;;;;5078172;28;20572;-86
2021/08/15 05:39:44;;;;;;;1999.90;999.90;;;17.50;99.90;;;;;;5082510;28;20455;-86
2021/08/15 05:42:11;;;;;;;1999.90;999.90;;;17.60;99.90;;;;;;5083516;28;20815;-86
2021/08/15 05:44:39;;;;;;;1999.90;999.90;;;17.60;99.90;;;;;;5086738;28;20570;-85
2021/08/15 05:47:08;;;;;;;1999.90;999.90;;;17.80;99.90;;;;;;5085891;28;20550;-87
2021/08/15 05:49:35;;;;;;;1999.90;999.90;;;17.90;99.90;;;;;;5071326;28;20445;-85
2021/08/15 05:52:02;;;;;;;1999.90;999.90;;;18.00;99.90;;;;;;5073285;28;20487;-85
2021/08/15 05:54:29;;;;;;;1999.90;999.90;;;18.10;99.90;;;;;;5076686;28;20552;-85
2021/08/15 05:56:56;;;;;;;1999.90;999.90;;;18.20;99.90;;;;;;5077484;28;20479;-85
2021/08/15 05:59:23;;;;;;;1999.90;999.90;;;18.30;99.90;;;;;;5087102;28;20536;-84
2021/08/15 06:01:53;;;;;;;1999.90;999.90;;;18.40;99.90;;;;;;5077779;28;20450;-85
2021/08/15 06:04:23;;;;;;;1999.90;999.90;;;18.50;99.90;;;;;;5077209;28;20477;-84
2021/08/15 06:06:49;;;;;;;1999.90;999.90;;;18.70;99.90;;;;;;5078878;28;20479;-85
2021/08/15 06:09:16;;;;;;;1999.90;999.90;;;18.70;99.90;;;;;;5083859;28;20551;-85
2021/08/15 06:11:43;;;;;;;1999.90;999.90;;;18.80;99.90;;;;;;5079886;28;20450;-85
2021/08/15 06:14:10;;;;;;;1999.90;999.90;;;18.90;99.90;;;;;;5083870;28;20451;-85
2021/08/15 06:16:37;;;;;;;1999.90;999.90;;;18.90;99.90;;;;;;5081132;28;20480;-84
2021/08/15 06:19:05;;;;;;;1999.90;999.90;;;18.90;99.90;;;;;;5081439;28;20549;-84
2021/08/15 06:21:32;;;;;;;1999.90;999.90;;;19.00;99.90;;;;;;5081259;28;20449;-85
2021/08/15 06:23:58;;;;;;;1999.90;999.90;;;19.10;99.90;;;;;;5080862;28;20524;-83
2021/08/15 06:26:26;;;;;;;1999.90;999.90;;;19.10;99.90;;;;;;5060386;28;20478;-84
2021/08/15 06:28:53;;;;;;;1999.90;999.90;;;19.20;99.90;;;;;;5059910;28;20467;-85
2021/08/15 06:31:20;;;;;;;1999.90;999.90;;;19.20;99.90;;;;;;5060368;28;20497;-83
2021/08/15 06:33:47;;;;;;;1999.90;999.90;;;19.30;99.90;;;;;;5073686;28;20445;-84
2021/08/15 06:36:15;;;;;;;1999.90;999.90;;;19.40;99.90;;;;;;5079923;28;20510;-84
2021/08/15 06:38:42;;;;;;;1999.90;999.90;;;19.30;99.90;;;;;;5079673;28;20454;-84
2021/08/15 06:41:09;;;;;;;1999.90;999.90;;;19.40;99.90;;;;;;5080121;28;20438;-84
2021/08/15 06:43:36;;;;;;;1999.90;999.90;;;19.30;99.90;;;;;;5081074;28;20485;-83
2021/08/15 06:46:03;;;;;;;1999.90;999.90;;;19.50;99.90;;;;;;5080541;28;20480;-84
2021/08/15 06:48:30;;;;;;;1999.90;999.90;;;19.70;99.90;;;;;;5080313;28;20446;-84
2021/08/15 06:50:58;;;;;;;1999.90;999.90;;;19.70;99.90;;;;;;5081262;28;20457;-85
2021/08/15 06:53:27;;;;;;;1999.90;999.90;;;19.80;99.90;;;;;;5079582;28;20466;-85
2021/08/15 06:55:56;;;;;;;1999.90;999.90;;;20.00;99.90;;;;;;5078949;28;20471;-85
2021/08/15 06:58:23;;;;;;;1999.90;999.90;;;20.00;99.90;;;;;;5079716;28;20454;-85
2021/08/15 07:00:50;;;;;;;1999.90;999.90;;;20.20;99.90;;;;;;5078944;28;20439;-85
2021/08/15 07:03:17;;;;;;;1999.90;999.90;;;20.30;99.90;;;;;;5077623;28;20526;-84
2021/08/15 07:05:44;;;;;;;1999.90;999.90;;;20.40;99.90;;;;;;5078730;28;20477;-84
2021/08/15 07:08:11;;;;;;;1999.90;999.90;;;20.50;99.90;;;;;;5081974;28;20478;-84
2021/08/15 07:10:39;;;;;;;1999.90;999.90;;;20.60;99.90;;;;;;5081596;28;20749;-85
2021/08/15 07:13:07;;;;;;;1999.90;999.90;;;20.60;99.90;;;;;;5078364;28;20971;-84
2021/08/15 07:15:34;;;;;;;1999.90;999.90;;;20.70;99.90;;;;;;5076564;28;20843;-85
2021/08/15 07:18:01;;;;;;;1999.90;999.90;;;20.80;99.90;;;;;;5073970;28;20458;-84
2021/08/15 07:20:29;;;;;;;1999.90;999.90;;;20.90;99.90;;;;;;5079132;28;20447;-85
2021/08/15 07:22:56;;;;;;;1999.90;999.90;;;21.00;99.90;;;;;;5080500;28;20447;-82
2021/08/15 07:25:24;;;;;;;1999.90;999.90;;;21.10;99.90;;;;;;5083638;28;20485;-85
2021/08/15 07:27:53;;;;;;;1999.90;999.90;;;21.00;99.90;;;;;;5083912;28;20458;-85
2021/08/15 07:30:19;;;;;;;1999.90;999.90;;;21.10;99.90;;;;;;5084064;28;20443;-84
2021/08/15 07:32:51;;;;;;;1999.90;999.90;;;21.30;99.90;;;;;;5084324;28;20451;-85
2021/08/15 07:35:18;;;;;;;1999.90;999.90;;;21.30;99.90;;;;;;5076785;28;20440;-85
2021/08/15 07:37:45;;;;;;;1999.90;999.90;;;21.30;99.90;;;;;;5068307;28;20702;-84
2021/08/15 07:40:13;;;;;;;1999.90;999.90;;;21.30;99.90;;;;;;5071522;28;20470;-85
2021/08/15 07:42:40;;;;;;;1999.90;999.90;;;21.40;99.90;;;;;;5083165;28;20459;-84
2021/08/15 07:45:10;;;;;;;1999.90;999.90;;;21.50;99.90;;;;;;5083189;28;20481;-84
2021/08/15 07:47:37;;;;;;;1999.90;999.90;;;21.60;99.90;;;;;;5082829;28;20787;-85
2021/08/15 07:50:05;;;;;;;1999.90;999.90;;;21.60;99.90;;;;;;5084415;28;20470;-86
2021/08/15 07:52:32;;;;;;;1999.90;999.90;;;21.70;99.90;;;;;;5082638;28;20451;-85
2021/08/15 07:54:59;;;;;;;1999.90;999.90;;;22.00;99.90;;;;;;5081492;28;20482;-85
2021/08/15 07:57:26;;;;;;;1999.90;999.90;;;22.00;99.90;;;;;;5069972;28;20472;-85
2021/08/15 07:59:54;;;;;;;1999.90;999.90;;;22.20;99.90;;;;;;5062257;28;20857;-84
2021/08/15 08:02:22;;;;;;;1999.90;999.90;;;22.30;99.90;;;;;;5063943;28;20456;-84
2021/08/15 08:04:50;;;;;;;1999.90;999.90;;;22.40;99.90;;;;;;5062717;28;20528;-86
2021/08/15 08:07:19;;;;;;;1999.90;999.90;;;22.50;99.90;;;;;;5073912;28;20471;-88
2021/08/15 08:09:46;;;;;;;1999.90;999.90;;;22.60;99.90;;;;;;5085626;28;20504;-85
2021/08/15 08:12:13;;;;;;;1999.90;999.90;;;22.70;99.90;;;;;;5085907;28;20469;-86
2021/08/15 08:14:40;;;;;;;1999.90;999.90;;;22.70;99.90;;;;;;5085943;28;20547;-86
2021/08/15 08:17:07;;;;;;;1999.90;999.90;;;22.70;99.90;;;;;;5084924;28;20491;-87
2021/08/15 08:19:35;;;;;;;1999.90;999.90;;;22.70;99.90;;;;;;5088181;28;20503;-87
2021/08/15 08:22:02;;;;;;;1999.90;999.90;;;23.00;99.90;;;;;;5086693;28;21001;-86
2021/08/15 08:24:29;;;;;;;1999.90;999.90;;;23.30;99.90;;;;;;5086802;28;20494;-86
2021/08/15 08:26:56;;;;;;;1999.90;999.90;;;23.40;99.90;;;;;;5079327;28;20498;-85
2021/08/15 08:29:23;;;;;;;1999.90;999.90;;;23.60;99.90;;;;;;5067221;28;20479;-86
2021/08/15 08:31:50;;;;;;;1999.90;999.90;;;23.60;99.90;;;;;;5066936;28;20521;-85
2021/08/15 08:34:17;;;;;;;1999.90;999.90;;;23.70;99.90;;;;;;5066345;28;20475;-85
2021/08/15 08:36:45;;;;;;;1999.90;999.90;;;23.70;99.90;;;;;;5065401;28;20498;-85
2021/08/15 08:39:12;;;;;;;1999.90;999.90;;;23.70;99.90;;;;;;5065145;28;20534;-86
2021/08/15 08:41:39;;;;;;;1999.90;999.90;;;23.50;99.90;;;;;;5063862;28;20515;-85
2021/08/15 08:44:08;;;;;;;1999.90;999.90;;;23.70;99.90;;;;;;5062812;28;20483;-86
2021/08/15 08:46:35;;;;;;;1999.90;999.90;;;23.80;99.90;;;;;;5063158;28;20837;-85
2021/08/15 08:49:02;;;;;;;1999.90;999.90;;;23.80;99.90;;;;;;5062814;28;20452;-85
2021/08/15 08:51:30;;;;;;;1999.90;999.90;;;23.80;99.90;;;;;;5061836;28;20448;-85
2021/08/15 08:54:02;;;;;;;1999.90;999.90;;;23.90;99.90;;;;;;5061796;28;20456;-85
2021/08/15 08:56:29;;;;;;;1999.90;999.90;;;23.70;99.90;;;;;;5062824;28;20562;-86
2021/08/15 08:58:56;;;;;;;1999.90;999.90;;;23.60;99.90;;;;;;5062955;28;20558;-85
2021/08/15 09:01:22;;;;;;;1999.90;999.90;;;23.50;99.90;;;;;;5062533;28;21132;-83
2021/08/15 09:03:49;;;;;;;1999.90;999.90;;;23.40;99.90;;;;;;5060646;28;20483;-86
2021/08/15 09:06:21;;;;;;;1999.90;999.90;;;23.50;99.90;;;;;;5063034;28;20510;-86
2021/08/15 09:08:48;;;;;;;1999.90;999.90;;;23.70;99.90;;;;;;5064092;28;20627;-86
2021/08/15 09:11:18;;;;;;;1999.90;999.90;;;23.90;99.90;;;;;;5068440;28;20545;-85
2021/08/15 09:13:46;;;;;;;1999.90;999.90;;;24.10;99.90;;;;;;5083609;28;20435;-86
2021/08/15 09:16:12;;;;;;;1999.90;999.90;;;24.30;99.90;;;;;;5082294;28;20479;-86
2021/08/15 09:18:39;;;;;;;1999.90;999.90;;;24.50;99.90;;;;;;5080885;28;20486;-86
2021/08/15 09:21:06;;;;;;;1999.90;999.90;;;24.60;99.90;;;;;;5079920;28;20453;-85
2021/08/15 09:23:35;;;;;;;1999.90;999.90;;;24.40;99.90;;;;;;5080567;28;20461;-85
2021/08/15 09:26:19;;;;;;;1999.90;999.90;;;24.20;99.90;;;;;;5081972;28;20506;-86
2021/08/15 09:28:47;;;;;;;1999.90;999.90;;;24.40;99.90;;;;;;5081067;28;20461;-84
2021/08/15 09:31:20;;;;;;;1999.90;999.90;;;24.40;99.90;;;;;;5080317;28;20896;-86
2021/08/15 09:33:47;;;;;;;1999.90;999.90;;;24.60;99.90;;;;;;5080300;28;20443;-85
2021/08/15 09:36:27;;;;;;;1999.90;999.90;;;24.40;99.90;;;;;;5097509;22;20470;-87
2021/08/15 09:39:06;;;;;;;1999.90;999.90;;;24.50;99.90;;;;;;5077467;28;20466;-86
2021/08/15 09:41:42;;;;;;;1999.90;999.90;;;24.60;99.90;;;;;;5084267;28;20442;-86
2021/08/15 09:44:34;;;;;;;1999.90;999.90;;;24.90;99.90;;;;;;5085935;28;20450;-86
2021/08/15 09:47:07;;;;;;;1999.90;999.90;;;24.90;99.90;;;;;;5078192;28;20475;-86
2021/08/15 09:49:52;;;;;;;1999.90;999.90;;;24.90;99.90;;;;;;5086767;28;20453;-86
2021/08/15 09:52:22;;;;;;;1999.90;999.90;;;24.90;99.90;;;;;;5058793;28;20444;-84
2021/08/15 09:55:00;;;;;;;1999.90;999.90;;;24.90;99.90;;;;;;5059224;28;20914;-83
2021/08/15 09:57:32;;;;;;;1999.90;999.90;;;25.20;99.90;;;;;;5066437;28;20509;-82
2021/08/15 09:59:59;;;;;;;1999.90;999.90;;;25.30;99.90;;;;;;5057492;28;20501;-87
2021/08/15 10:02:28;;;;;;;1999.90;999.90;;;25.50;99.90;;;;;;5075638;28;20827;-84
2021/08/15 10:04:57;;;;;;;1999.90;999.90;;;25.70;99.90;;;;;;5081484;28;20481;-83
2021/08/15 10:07:25;;;;;;;1999.90;999.90;;;25.80;99.90;;;;;;5082537;28;20561;-86
2021/08/15 10:09:52;;;;;;;1999.90;999.90;;;25.70;99.90;;;;;;5078501;28;20455;-86
2021/08/15 10:12:19;;;;;;;1999.90;999.90;;;25.50;99.90;;;;;;5075612;28;20454;-83
2021/08/15 10:14:47;;;;;;;1999.90;999.90;;;25.60;99.90;;;;;;5077734;28;20717;-86
2021/08/15 10:17:17;;;;;;;1999.90;999.90;;;25.50;99.90;;;;;;5070894;28;20551;-83
2021/08/15 10:19:47;;;;;;;1999.90;999.90;;;25.60;99.90;;;;;;5059187;28;20458;-83
2021/08/15 10:22:21;;;;;;;1999.90;999.90;;;25.60;99.90;;;;;;5059931;28;20487;-84
2021/08/15 10:24:49;;;;;;;1999.90;999.90;;;25.70;99.90;;;;;;5072608;28;20476;-84
2021/08/15 10:27:45;;;;;;;1999.90;999.90;;;25.50;99.90;;;;;;5063475;28;20469;-85
2021/08/15 10:30:47;;;;;;;1999.90;999.90;;;25.60;99.90;;;;;;5103246;28;20446;-85
2021/08/15 10:33:20;;;;;;;1999.90;999.90;;;26.00;99.90;;;;;;5101991;28;20533;-84
2021/08/15 10:36:20;;;;;;;1999.90;999.90;;;26.10;99.90;;;;;;5090634;28;20466;-84
2021/08/15 10:38:49;;;;;;;1999.90;999.90;;;26.10;99.90;;;;;;5082354;28;20487;-84
2021/08/15 10:41:48;;;;;;;1999.90;999.90;;;26.40;99.90;;;;;;5088352;28;20480;-87
2021/08/15 10:44:15;;;;;;;1999.90;999.90;;;26.60;99.90;;;;;;5086909;28;20443;-85
2021/08/15 10:47:13;;;;;;;1999.90;999.90;;;26.80;99.90;;;;;;5077983;28;20454;-84
2021/08/15 10:49:56;;;;;;;1999.90;999.90;;;27.40;99.90;;;;;;5091570;28;20874;-85
2021/08/15 10:52:40;;;;;;;1999.90;999.90;;;27.50;99.90;;;;;;5092829;28;20423;-84
2021/08/15 10:55:13;;;;;;;1999.90;999.90;;;27.60;99.90;;;;;;5094543;28;20427;-84
2021/08/15 10:57:47;;;;;;;1999.90;999.90;;;27.60;99.90;;;;;;5085644;28;21000;-84
2021/08/15 11:00:40;;;;;;;1999.90;999.90;;;27.40;99.90;;;;;;5087893;28;20457;-84
2021/08/15 11:03:33;;;;;;;1999.90;999.90;;;27.60;99.90;;;;;;5085614;28;20493;-83
2021/08/15 11:06:02;;;;;;;1999.90;999.90;;;27.60;99.90;;;;;;5087971;28;20550;-84
2021/08/15 11:08:53;;;;;;;1999.90;999.90;;;27.80;99.90;;;;;;5089259;28;20827;-84
2021/08/15 11:11:25;;;;;;;1999.90;999.90;;;27.80;99.90;;;;;;5085053;28;20451;-84
2021/08/15 11:14:27;;;;;;;1999.90;999.90;;;27.90;99.90;;;;;;5087839;28;20542;-87
2021/08/15 11:16:56;;;;;;;1999.90;999.90;;;28.30;99.90;;;;;;5070290;28;20499;-85
2021/08/15 11:19:30;;;;;;;1999.90;999.90;;;28.80;99.90;;;;;;5067284;28;20507;-85
2021/08/15 11:22:16;;;;;;;1999.90;999.90;;;29.50;99.90;;;;;;5070890;28;20444;-84
2021/08/15 11:24:53;;;;;;;1999.90;999.90;;;30.00;99.90;;;;;;5073454;28;20526;-84
2021/08/15 11:27:32;;;;;;;1999.90;999.90;;;30.70;99.90;;;;;;5089820;28;20534;-85
2021/08/15 11:30:01;;;;;;;1999.90;999.90;;;30.80;99.90;;;;;;5091568;28;20482;-85
2021/08/15 11:32:30;;;;;;;1999.90;999.90;;;31.20;99.90;;;;;;5091247;28;20447;-84
2021/08/15 11:34:59;;;;;;;1999.90;999.90;;;31.00;99.90;;;;;;5085746;28;20444;-84
2021/08/15 11:37:29;;;;;;;1063.17;872.90;;;31.20;99.90;;;;;;5070760;28;20511;-85
2021/08/15 11:39:56;;;;;;;1027.70;938.83;;;30.80;99.90;;;;;;5089801;28;20465;-85
2021/08/15 11:42:25;;;;;;;1000.80;934.87;;;31.00;99.90;;;;;;5091973;28;20970;-84
2021/08/15 11:44:55;;;;;;;971.47;911.53;;;31.30;99.90;;;;;;5093245;28;20573;-84
2021/08/15 11:47:24;;;;;;;1200.17;999.90;;;30.80;99.90;;;;;;5089662;28;20471;-86
2021/08/15 11:49:52;;;;;;;1187.97;999.90;;;31.30;99.90;;;;;;5090790;28;20506;-84
2021/08/15 11:52:22;;;;;;;937.83;875.07;;;31.70;99.90;;;;;;5092623;28;20458;-85
2021/08/15 11:54:51;;;;;;;782.07;736.73;;;31.60;99.90;;;;;;5091378;28;20470;-84
2021/08/15 11:57:18;;;;;;;772.93;727.73;;;31.50;99.90;;;;;;5072582;28;20507;-84
2021/08/15 11:59:47;;;;;;;752.10;709.83;;;31.00;99.90;;;;;;5076269;28;20444;-84
2021/08/15 12:02:22;;;;;;;994.17;927.67;;;31.20;99.90;;;;;;5088596;28;20457;-85
2021/08/15 12:04:50;;;;;;;855.43;804.37;;;30.80;99.90;;;;;;5082633;28;20435;-84
2021/08/15 12:07:22;;;;;;;864.70;812.57;;;31.00;99.90;;;;;;5069680;28;20468;-83